sensor_id;sensor_type;location;lat;lon;timestamp;temperature;humidity
57564;DHT22;43400;45.926;6.724;2022-10-10T00:00:06;11.80;99.90
57564;DHT22;43400;45.926;6.724;2022-10-10T00:02:38;11.70;99.90
57564;DHT22;43400;45.926;6.724;2022-10-10T00:05:09;11.70;99.90
57564;DHT22;43400;45.926;6.724;2022-10-10T00:07:41;11.70;99.90
57564;DHT22;43400;45.926;6.724;2022-10-10T00:10:13;11.60;99.90
57564;DHT22;43400;45.926;6.724;2022-10-10T00:12:44;11.60;99.90
57564;DHT22;43400;45.926;6.724;2022-10-10T00:15:18;11.60;99.90
57564;DHT22;43400;45.926;6.724;2022-10-10T00:17:50;11.60;99.90
57564;DHT22;43400;45.926;6.724;2022-10-10T00:20:22;11.50;99.90
57564;DHT22;43400;45.926;6.724;2022-10-10T00:22:54;11.50;99.90
57564;DHT22;43400;45.926;6.724;2022-10-10T00:25:25;11.50;99.90
57564;DHT22;43400;45.926;6.724;2022-10-10T00:28:00;11.50;99.90
57564;DHT22;43400;45.926;6.724;2022-10-10T00:30:34;11.50;99.90
57564;DHT22;43400;45.926;6.724;2022-10-10T00:33:05;11.50;99.90
57564;DHT22;43400;45.926;6.724;2022-10-10T00:35:37;11.50;99.90
57564;DHT22;43400;45.926;6.724;2022-10-10T00:38:09;11.60;99.90
57564;DHT22;43400;45.926;6.724;2022-10-10T00:40:49;11.60;99.90
57564;DHT22;43400;45.926;6.724;2022-10-10T00:43:23;11.60;99.90
57564;DHT22;43400;45.926;6.724;2022-10-10T00:45:55;11.50;99.90
57564;DHT22;43400;45.926;6.724;2022-10-10T00:48:38;11.50;99.90
57564;DHT22;43400;45.926;6.724;2022-10-10T00:51:17;11.50;99.90
57564;DHT22;43400;45.926;6.724;2022-10-10T00:53:56;11.50;99.90
57564;DHT22;43400;45.926;6.724;2022-10-10T00:56:32;11.50;99.90
57564;DHT22;43400;45.926;6.724;2022-10-10T00:59:07;11.50;99.90
57564;DHT22;43400;45.926;6.724;2022-10-10T01:01:40;11.50;99.90
57564;DHT22;43400;45.926;6.724;2022-10-10T01:04:41;11.50;99.90
57564;DHT22;43400;45.926;6.724;2022-10-10T01:07:17;11.50;99.90
57564;DHT22;43400;45.926;6.724;2022-10-10T01:09:51;11.50;99.90
57564;DHT22;43400;45.926;6.724;2022-10-10T01:15:53;11.50;99.90
57564;DHT22;43400;45.926;6.724;2022-10-10T01:24:30;11.50;99.90
57564;DHT22;43400;45.926;6.724;2022-10-10T01:29:56;11.50;99.90
57564;DHT22;43400;45.926;6.724;2022-10-10T01:38:29;11.50;99.90
57564;DHT22;43400;45.926;6.724;2022-10-10T01:41:14;11.60;99.90
57564;DHT22;43400;45.926;6.724;2022-10-10T01:43:52;11.50;99.90
57564;DHT22;43400;45.926;6.724;2022-10-10T01:46:24;11.60;99.90
57564;DHT22;43400;45.926;6.724;2022-10-10T01:48:57;11.60;99.90
57564;DHT22;43400;45.926;6.724;2022-10-10T02:00:12;11.40;99.90
57564;DHT22;43400;45.926;6.724;2022-10-10T02:02:59;11.30;99.90
57564;DHT22;43400;45.926;6.724;2022-10-10T02:08:14;11.30;99.90
57564;DHT22;43400;45.926;6.724;2022-10-10T02:10:51;11.30;99.90
57564;DHT22;43400;45.926;6.724;2022-10-10T02:13:32;11.30;99.90
57564;DHT22;43400;45.926;6.724;2022-10-10T02:16:11;11.30;99.90
57564;DHT22;43400;45.926;6.724;2022-10-10T02:18:45;11.30;99.90
57564;DHT22;43400;45.926;6.724;2022-10-10T02:21:18;11.30;99.90
57564;DHT22;43400;45.926;6.724;2022-10-10T02:23:54;11.40;99.90
57564;DHT22;43400;45.926;6.724;2022-10-10T02:26:27;11.30;99.90
57564;DHT22;43400;45.926;6.724;2022-10-10T02:29:10;11.40;99.90
57564;DHT22;43400;45.926;6.724;2022-10-10T02:32:04;11.40;99.90
57564;DHT22;43400;45.926;6.724;2022-10-10T02:34:40;11.40;99.90
57564;DHT22;43400;45.926;6.724;2022-10-10T02:37:14;11.40;99.90
57564;DHT22;43400;45.926;6.724;2022-10-10T02:39:50;11.40;99.90
57564;DHT22;43400;45.926;6.724;2022-10-10T02:42:23;11.40;99.90
57564;DHT22;43400;45.926;6.724;2022-10-10T02:44:56;11.40;99.90
57564;DHT22;43400;45.926;6.724;2022-10-10T02:47:28;11.40;99.90
57564;DHT22;43400;45.926;6.724;2022-10-10T02:50:00;11.40;99.90
57564;DHT22;43400;45.926;6.724;2022-10-10T02:52:31;11.40;99.90
57564;DHT22;43400;45.926;6.724;2022-10-10T02:55:03;11.50;99.90
57564;DHT22;43400;45.926;6.724;2022-10-10T02:57:35;11.50;99.90
57564;DHT22;43400;45.926;6.724;2022-10-10T03:00:07;11.60;99.90
57564;DHT22;43400;45.926;6.724;2022-10-10T03:02:38;11.60;99.90
57564;DHT22;43400;45.926;6.724;2022-10-10T03:05:10;11.60;99.90
57564;DHT22;43400;45.926;6.724;2022-10-10T03:07:42;11.60;99.90
57564;DHT22;43400;45.926;6.724;2022-10-10T03:10:14;11.60;99.90
57564;DHT22;43400;45.926;6.724;2022-10-10T03:12:45;11.70;99.90
57564;DHT22;43400;45.926;6.724;2022-10-10T03:15:17;11.60;99.90
57564;DHT22;43400;45.926;6.724;2022-10-10T03:17:49;11.60;99.90
57564;DHT22;43400;45.926;6.724;2022-10-10T03:20:20;11.70;99.90
57564;DHT22;43400;45.926;6.724;2022-10-10T03:22:52;11.70;99.90
57564;DHT22;43400;45.926;6.724;2022-10-10T03:25:24;11.80;99.90
57564;DHT22;43400;45.926;6.724;2022-10-10T03:27:55;11.70;99.90
57564;DHT22;43400;45.926;6.724;2022-10-10T03:30:27;11.70;99.90
57564;DHT22;43400;45.926;6.724;2022-10-10T03:32:59;11.70;99.90
57564;DHT22;43400;45.926;6.724;2022-10-10T03:35:30;11.70;99.90
57564;DHT22;43400;45.926;6.724;2022-10-10T03:38:02;11.70;99.90
57564;DHT22;43400;45.926;6.724;2022-10-10T03:40:38;11.80;99.90
57564;DHT22;43400;45.926;6.724;2022-10-10T03:43:11;11.70;99.90
57564;DHT22;43400;45.926;6.724;2022-10-10T03:45:44;11.80;99.90
57564;DHT22;43400;45.926;6.724;2022-10-10T03:48:16;11.80;99.90
57564;DHT22;43400;45.926;6.724;2022-10-10T03:50:48;11.80;99.90
57564;DHT22;43400;45.926;6.724;2022-10-10T03:53:19;11.80;99.90
57564;DHT22;43400;45.926;6.724;2022-10-10T03:55:52;11.70;99.90
57564;DHT22;43400;45.926;6.724;2022-10-10T03:58:24;11.70;99.90
57564;DHT22;43400;45.926;6.724;2022-10-10T04:00:57;11.80;99.90
57564;DHT22;43400;45.926;6.724;2022-10-10T04:03:30;11.70;99.90
57564;DHT22;43400;45.926;6.724;2022-10-10T04:06:02;11.80;99.90
57564;DHT22;43400;45.926;6.724;2022-10-10T04:08:33;11.70;99.90
57564;DHT22;43400;45.926;6.724;2022-10-10T04:11:05;11.70;99.90
57564;DHT22;43400;45.926;6.724;2022-10-10T04:13:36;11.70;99.90
57564;DHT22;43400;45.926;6.724;2022-10-10T04:16:08;11.70;99.90
57564;DHT22;43400;45.926;6.724;2022-10-10T04:18:39;11.70;99.90
57564;DHT22;43400;45.926;6.724;2022-10-10T04:21:11;11.70;99.90
57564;DHT22;43400;45.926;6.724;2022-10-10T04:23:43;11.70;99.90
57564;DHT22;43400;45.926;6.724;2022-10-10T04:26:14;11.70;99.90
57564;DHT22;43400;45.926;6.724;2022-10-10T04:28:46;11.70;99.90
57564;DHT22;43400;45.926;6.724;2022-10-10T04:31:17;11.70;99.90
57564;DHT22;43400;45.926;6.724;2022-10-10T04:33:50;11.80;99.90
57564;DHT22;43400;45.926;6.724;2022-10-10T04:36:22;11.80;99.90
57564;DHT22;43400;45.926;6.724;2022-10-10T04:38:54;11.80;99.90
57564;DHT22;43400;45.926;6.724;2022-10-10T04:41:25;11.80;99.90
57564;DHT22;43400;45.926;6.724;2022-10-10T04:43:57;11.80;99.90
57564;DHT22;43400;45.926;6.724;2022-10-10T04:46:28;11.90;99.90
57564;DHT22;43400;45.926;6.724;2022-10-10T04:49:00;11.80;99.90
57564;DHT22;43400;45.926;6.724;2022-10-10T04:51:31;11.90;99.90
57564;DHT22;43400;45.926;6.724;2022-10-10T04:54:03;11.90;99.90
57564;DHT22;43400;45.926;6.724;2022-10-10T04:56:35;11.90;99.90
57564;DHT22;43400;45.926;6.724;2022-10-10T04:59:07;11.80;99.90
57564;DHT22;43400;45.926;6.724;2022-10-10T05:01:38;11.80;99.90
57564;DHT22;43400;45.926;6.724;2022-10-10T05:04:10;11.80;99.90
57564;DHT22;43400;45.926;6.724;2022-10-10T05:06:41;11.80;99.90
57564;DHT22;43400;45.926;6.724;2022-10-10T05:09:13;11.70;99.90
57564;DHT22;43400;45.926;6.724;2022-10-10T05:11:45;11.70;99.90
57564;DHT22;43400;45.926;6.724;2022-10-10T05:14:16;11.70;99.90
57564;DHT22;43400;45.926;6.724;2022-10-10T05:16:48;11.80;99.90
57564;DHT22;43400;45.926;6.724;2022-10-10T05:19:20;11.80;99.90
57564;DHT22;43400;45.926;6.724;2022-10-10T05:21:53;11.90;99.90
57564;DHT22;43400;45.926;6.724;2022-10-10T05:24:24;11.80;99.90
57564;DHT22;43400;45.926;6.724;2022-10-10T05:26:56;11.80;99.90
57564;DHT22;43400;45.926;6.724;2022-10-10T05:29:28;11.70;99.90
57564;DHT22;43400;45.926;6.724;2022-10-10T05:31:59;11.80;99.90
57564;DHT22;43400;45.926;6.724;2022-10-10T05:34:31;11.80;99.90
57564;DHT22;43400;45.926;6.724;2022-10-10T05:37:02;11.80;99.90
57564;DHT22;43400;45.926;6.724;2022-10-10T05:39:34;11.80;99.90
57564;DHT22;43400;45.926;6.724;2022-10-10T05:42:06;11.80;99.90
57564;DHT22;43400;45.926;6.724;2022-10-10T05:44:37;11.80;99.90
57564;DHT22;43400;45.926;6.724;2022-10-10T05:47:09;11.80;99.90
57564;DHT22;43400;45.926;6.724;2022-10-10T05:49:41;11.80;99.90
57564;DHT22;43400;45.926;6.724;2022-10-10T05:52:12;11.80;99.90
57564;DHT22;43400;45.926;6.724;2022-10-10T05:54:44;11.80;99.90
57564;DHT22;43400;45.926;6.724;2022-10-10T05:57:15;11.90;99.90
57564;DHT22;43400;45.926;6.724;2022-10-10T05:59:47;11.90;99.90
57564;DHT22;43400;45.926;6.724;2022-10-10T06:02:18;11.90;99.90
57564;DHT22;43400;45.926;6.724;2022-10-10T06:04:50;11.90;99.90
57564;DHT22;43400;45.926;6.724;2022-10-10T06:07:22;11.90;99.90
57564;DHT22;43400;45.926;6.724;2022-10-10T06:09:53;11.90;99.90
57564;DHT22;43400;45.926;6.724;2022-10-10T06:12:25;11.90;99.90
57564;DHT22;43400;45.926;6.724;2022-10-10T06:14:56;11.90;99.90
57564;DHT22;43400;45.926;6.724;2022-10-10T06:17:28;12.00;99.90
57564;DHT22;43400;45.926;6.724;2022-10-10T06:19:59;12.00;99.90
57564;DHT22;43400;45.926;6.724;2022-10-10T06:22:31;12.10;99.90
57564;DHT22;43400;45.926;6.724;2022-10-10T06:25:03;12.10;99.90
57564;DHT22;43400;45.926;6.724;2022-10-10T06:27:34;12.10;99.90
57564;DHT22;43400;45.926;6.724;2022-10-10T06:30:07;12.20;99.90
57564;DHT22;43400;45.926;6.724;2022-10-10T06:32:38;12.10;99.90
57564;DHT22;43400;45.926;6.724;2022-10-10T06:35:10;12.20;99.90
57564;DHT22;43400;45.926;6.724;2022-10-10T06:37:41;12.30;99.90
57564;DHT22;43400;45.926;6.724;2022-10-10T06:40:13;12.30;99.90
57564;DHT22;43400;45.926;6.724;2022-10-10T06:42:45;12.30;99.90
57564;DHT22;43400;45.926;6.724;2022-10-10T06:45:17;12.40;99.90
57564;DHT22;43400;45.926;6.724;2022-10-10T06:47:48;12.40;99.90
57564;DHT22;43400;45.926;6.724;2022-10-10T06:50:20;12.50;99.90
57564;DHT22;43400;45.926;6.724;2022-10-10T06:52:52;12.50;99.90
57564;DHT22;43400;45.926;6.724;2022-10-10T06:55:23;12.50;99.90
57564;DHT22;43400;45.926;6.724;2022-10-10T06:57:55;12.60;99.90
57564;DHT22;43400;45.926;6.724;2022-10-10T07:00:27;12.60;99.90
57564;DHT22;43400;45.926;6.724;2022-10-10T07:02:58;12.70;99.90
57564;DHT22;43400;45.926;6.724;2022-10-10T07:05:30;12.70;99.90
57564;DHT22;43400;45.926;6.724;2022-10-10T07:08:01;12.90;99.90
57564;DHT22;43400;45.926;6.724;2022-10-10T07:10:33;12.80;99.90
57564;DHT22;43400;45.926;6.724;2022-10-10T07:13:05;12.90;99.90
57564;DHT22;43400;45.926;6.724;2022-10-10T07:15:36;12.90;99.90
57564;DHT22;43400;45.926;6.724;2022-10-10T07:18:08;12.90;99.90
57564;DHT22;43400;45.926;6.724;2022-10-10T07:20:43;13.00;99.90
57564;DHT22;43400;45.926;6.724;2022-10-10T07:23:15;13.00;99.90
57564;DHT22;43400;45.926;6.724;2022-10-10T07:25:46;13.00;99.90
57564;DHT22;43400;45.926;6.724;2022-10-10T07:28:18;13.10;99.90
57564;DHT22;43400;45.926;6.724;2022-10-10T07:30:50;13.20;99.90
57564;DHT22;43400;45.926;6.724;2022-10-10T07:33:21;13.20;99.90
57564;DHT22;43400;45.926;6.724;2022-10-10T07:35:53;13.20;99.90
57564;DHT22;43400;45.926;6.724;2022-10-10T07:38:25;13.20;99.90
57564;DHT22;43400;45.926;6.724;2022-10-10T07:40:56;13.10;99.90
57564;DHT22;43400;45.926;6.724;2022-10-10T07:43:28;13.10;99.90
57564;DHT22;43400;45.926;6.724;2022-10-10T07:45:59;13.10;99.90
57564;DHT22;43400;45.926;6.724;2022-10-10T07:48:31;13.10;99.90
57564;DHT22;43400;45.926;6.724;2022-10-10T07:51:05;13.10;99.90
57564;DHT22;43400;45.926;6.724;2022-10-10T07:53:37;13.00;99.90
57564;DHT22;43400;45.926;6.724;2022-10-10T07:56:09;12.90;99.90
57564;DHT22;43400;45.926;6.724;2022-10-10T07:58:41;12.90;99.90
57564;DHT22;43400;45.926;6.724;2022-10-10T08:01:13;12.80;99.90
57564;DHT22;43400;45.926;6.724;2022-10-10T08:03:44;12.80;99.90
57564;DHT22;43400;45.926;6.724;2022-10-10T08:06:17;12.80;99.90
57564;DHT22;43400;45.926;6.724;2022-10-10T08:08:49;12.80;99.90
57564;DHT22;43400;45.926;6.724;2022-10-10T08:11:21;12.70;99.90
57564;DHT22;43400;45.926;6.724;2022-10-10T08:13:52;12.70;99.90
57564;DHT22;43400;45.926;6.724;2022-10-10T08:16:24;12.60;99.90
57564;DHT22;43400;45.926;6.724;2022-10-10T08:18:56;12.50;99.90
57564;DHT22;43400;45.926;6.724;2022-10-10T08:21:28;12.50;99.90
57564;DHT22;43400;45.926;6.724;2022-10-10T08:23:59;12.60;99.90
57564;DHT22;43400;45.926;6.724;2022-10-10T08:26:31;12.60;99.90
57564;DHT22;43400;45.926;6.724;2022-10-10T08:29:03;12.60;99.90
57564;DHT22;43400;45.926;6.724;2022-10-10T08:31:34;12.60;99.90
57564;DHT22;43400;45.926;6.724;2022-10-10T08:34:06;12.60;99.90
57564;DHT22;43400;45.926;6.724;2022-10-10T08:36:38;12.60;99.90
57564;DHT22;43400;45.926;6.724;2022-10-10T08:39:09;12.50;99.90
57564;DHT22;43400;45.926;6.724;2022-10-10T08:41:54;12.40;99.90
57564;DHT22;43400;45.926;6.724;2022-10-10T08:47:38;12.40;99.90
57564;DHT22;43400;45.926;6.724;2022-10-10T08:50:23;12.40;99.90
57564;DHT22;43400;45.926;6.724;2022-10-10T08:55:32;12.80;99.90
57564;DHT22;43400;45.926;6.724;2022-10-10T09:01:01;13.20;99.90
57564;DHT22;43400;45.926;6.724;2022-10-10T09:03:38;13.40;99.90
57564;DHT22;43400;45.926;6.724;2022-10-10T09:17:31;14.70;99.90
57564;DHT22;43400;45.926;6.724;2022-10-10T09:23:09;15.20;99.20
57564;DHT22;43400;45.926;6.724;2022-10-10T09:25:53;15.20;97.30
57564;DHT22;43400;45.926;6.724;2022-10-10T09:31:47;15.80;99.90
57564;DHT22;43400;45.926;6.724;2022-10-10T09:34:24;16.00;98.70
57564;DHT22;43400;45.926;6.724;2022-10-10T09:37:00;16.30;97.90
57564;DHT22;43400;45.926;6.724;2022-10-10T09:39:43;16.50;95.30
57564;DHT22;43400;45.926;6.724;2022-10-10T09:42:24;16.30;93.80
57564;DHT22;43400;45.926;6.724;2022-10-10T09:44:57;16.40;95.10
57564;DHT22;43400;45.926;6.724;2022-10-10T09:47:29;16.40;95.50
57564;DHT22;43400;45.926;6.724;2022-10-10T09:50:01;16.30;94.60
57564;DHT22;43400;45.926;6.724;2022-10-10T09:52:33;16.30;94.70
57564;DHT22;43400;45.926;6.724;2022-10-10T09:55:14;16.30;93.70
57564;DHT22;43400;45.926;6.724;2022-10-10T09:57:51;16.30;93.90
57564;DHT22;43400;45.926;6.724;2022-10-10T10:00:32;16.50;94.10
57564;DHT22;43400;45.926;6.724;2022-10-10T10:03:12;17.00;92.10
57564;DHT22;43400;45.926;6.724;2022-10-10T10:05:59;17.50;90.80
57564;DHT22;43400;45.926;6.724;2022-10-10T10:08:35;18.00;89.40
57564;DHT22;43400;45.926;6.724;2022-10-10T10:11:25;18.30;87.40
57564;DHT22;43400;45.926;6.724;2022-10-10T10:13:57;18.70;84.60
57564;DHT22;43400;45.926;6.724;2022-10-10T10:16:37;19.00;83.20
57564;DHT22;43400;45.926;6.724;2022-10-10T10:19:36;19.30;82.00
57564;DHT22;43400;45.926;6.724;2022-10-10T10:22:32;19.60;79.70
57564;DHT22;43400;45.926;6.724;2022-10-10T10:25:30;19.90;77.90
57564;DHT22;43400;45.926;6.724;2022-10-10T10:30:43;19.90;76.60
57564;DHT22;43400;45.926;6.724;2022-10-10T10:36:39;23.00;65.80
57564;DHT22;43400;45.926;6.724;2022-10-10T10:39:20;25.20;58.20
57564;DHT22;43400;45.926;6.724;2022-10-10T10:41:55;26.80;53.20
57564;DHT22;43400;45.926;6.724;2022-10-10T10:44:47;27.80;52.00
57564;DHT22;43400;45.926;6.724;2022-10-10T10:50:24;28.70;50.30
57564;DHT22;43400;45.926;6.724;2022-10-10T10:53:09;29.00;48.00
57564;DHT22;43400;45.926;6.724;2022-10-10T11:01:15;30.80;44.40
57564;DHT22;43400;45.926;6.724;2022-10-10T11:04:00;31.50;43.80
57564;DHT22;43400;45.926;6.724;2022-10-10T11:09:38;31.50;42.30
57564;DHT22;43400;45.926;6.724;2022-10-10T11:13:01;30.10;42.30
57564;DHT22;43400;45.926;6.724;2022-10-10T11:15:35;29.60;43.00
57564;DHT22;43400;45.926;6.724;2022-10-10T11:18:15;29.10;44.00
57564;DHT22;43400;45.926;6.724;2022-10-10T11:21:10;28.70;44.70
57564;DHT22;43400;45.926;6.724;2022-10-10T11:23:56;27.10;47.10
57564;DHT22;43400;45.926;6.724;2022-10-10T11:26:36;27.00;48.90
57564;DHT22;43400;45.926;6.724;2022-10-10T11:29:26;27.40;47.90
57564;DHT22;43400;45.926;6.724;2022-10-10T11:31:59;28.90;46.60
57564;DHT22;43400;45.926;6.724;2022-10-10T11:34:40;30.20;43.60
57564;DHT22;43400;45.926;6.724;2022-10-10T11:37:17;30.80;41.80
57564;DHT22;43400;45.926;6.724;2022-10-10T11:40:02;31.00;42.50
57564;DHT22;43400;45.926;6.724;2022-10-10T11:42:42;31.30;43.30
57564;DHT22;43400;45.926;6.724;2022-10-10T11:45:23;30.50;42.20
57564;DHT22;43400;45.926;6.724;2022-10-10T11:50:43;30.00;43.30
57564;DHT22;43400;45.926;6.724;2022-10-10T11:53:24;30.20;45.40
57564;DHT22;43400;45.926;6.724;2022-10-10T11:59:22;30.60;43.10
57564;DHT22;43400;45.926;6.724;2022-10-10T12:01:59;30.30;44.10
57564;DHT22;43400;45.926;6.724;2022-10-10T12:04:37;29.90;44.30
57564;DHT22;43400;45.926;6.724;2022-10-10T12:15:54;29.90;46.70
57564;DHT22;43400;45.926;6.724;2022-10-10T12:18:42;30.50;46.60
57564;DHT22;43400;45.926;6.724;2022-10-10T12:21:17;30.70;44.20
57564;DHT22;43400;45.926;6.724;2022-10-10T12:24:03;30.70;43.90
57564;DHT22;43400;45.926;6.724;2022-10-10T12:32:40;30.90;46.40
57564;DHT22;43400;45.926;6.724;2022-10-10T12:41:14;30.40;45.50
57564;DHT22;43400;45.926;6.724;2022-10-10T12:43:50;30.50;46.70
57564;DHT22;43400;45.926;6.724;2022-10-10T12:46:27;30.20;46.40
57564;DHT22;43400;45.926;6.724;2022-10-10T12:49:22;30.20;46.90
57564;DHT22;43400;45.926;6.724;2022-10-10T12:52:22;30.20;45.70
57564;DHT22;43400;45.926;6.724;2022-10-10T12:54:52;29.50;45.60
57564;DHT22;43400;45.926;6.724;2022-10-10T12:57:32;29.30;47.30
57564;DHT22;43400;45.926;6.724;2022-10-10T13:00:22;29.50;47.10
57564;DHT22;43400;45.926;6.724;2022-10-10T13:03:01;29.00;46.60
57564;DHT22;43400;45.926;6.724;2022-10-10T13:05:36;29.30;46.80
57564;DHT22;43400;45.926;6.724;2022-10-10T13:08:16;29.50;45.80
57564;DHT22;43400;45.926;6.724;2022-10-10T13:13:33;29.40;47.30
57564;DHT22;43400;45.926;6.724;2022-10-10T13:16:13;29.50;47.50
57564;DHT22;43400;45.926;6.724;2022-10-10T13:18:53;29.60;46.00
57564;DHT22;43400;45.926;6.724;2022-10-10T13:21:32;29.40;47.50
57564;DHT22;43400;45.926;6.724;2022-10-10T13:24:05;29.10;46.20
57564;DHT22;43400;45.926;6.724;2022-10-10T13:26:42;29.20;48.20
57564;DHT22;43400;45.926;6.724;2022-10-10T13:29:29;29.60;48.20
57564;DHT22;43400;45.926;6.724;2022-10-10T13:32:07;29.90;45.80
57564;DHT22;43400;45.926;6.724;2022-10-10T13:34:44;29.10;46.30
57564;DHT22;43400;45.926;6.724;2022-10-10T13:37:18;29.30;46.30
57564;DHT22;43400;45.926;6.724;2022-10-10T13:39:50;29.10;47.20
57564;DHT22;43400;45.926;6.724;2022-10-10T13:42:39;29.40;46.60
57564;DHT22;43400;45.926;6.724;2022-10-10T13:45:29;28.90;46.30
57564;DHT22;43400;45.926;6.724;2022-10-10T13:56:09;29.90;45.60
57564;DHT22;43400;45.926;6.724;2022-10-10T13:58:43;30.10;46.50
57564;DHT22;43400;45.926;6.724;2022-10-10T14:07:10;30.30;46.50
57564;DHT22;43400;45.926;6.724;2022-10-10T14:09:49;29.70;46.10
57564;DHT22;43400;45.926;6.724;2022-10-10T14:12:32;30.10;46.10
57564;DHT22;43400;45.926;6.724;2022-10-10T14:18:23;29.20;45.80
57564;DHT22;43400;45.926;6.724;2022-10-10T14:20:55;29.80;46.70
57564;DHT22;43400;45.926;6.724;2022-10-10T14:23:26;29.20;47.00
57564;DHT22;43400;45.926;6.724;2022-10-10T14:25:58;28.90;47.60
57564;DHT22;43400;45.926;6.724;2022-10-10T14:28:33;29.20;46.50
57564;DHT22;43400;45.926;6.724;2022-10-10T14:31:07;29.20;46.20
57564;DHT22;43400;45.926;6.724;2022-10-10T14:33:39;27.80;48.20
57564;DHT22;43400;45.926;6.724;2022-10-10T14:36:11;27.80;49.30
57564;DHT22;43400;45.926;6.724;2022-10-10T14:38:43;28.20;49.40
57564;DHT22;43400;45.926;6.724;2022-10-10T14:41:14;27.60;49.30
57564;DHT22;43400;45.926;6.724;2022-10-10T14:43:46;26.90;50.60
57564;DHT22;43400;45.926;6.724;2022-10-10T14:46:18;25.60;50.70
57564;DHT22;43400;45.926;6.724;2022-10-10T14:48:50;25.20;51.70
57564;DHT22;43400;45.926;6.724;2022-10-10T14:51:22;24.50;53.00
57564;DHT22;43400;45.926;6.724;2022-10-10T14:53:53;24.00;54.40
57564;DHT22;43400;45.926;6.724;2022-10-10T14:56:25;23.80;55.20
57564;DHT22;43400;45.926;6.724;2022-10-10T14:58:57;23.80;54.30
57564;DHT22;43400;45.926;6.724;2022-10-10T15:01:28;23.70;54.90
57564;DHT22;43400;45.926;6.724;2022-10-10T15:04:00;23.40;55.80
57564;DHT22;43400;45.926;6.724;2022-10-10T15:06:31;23.40;55.50
57564;DHT22;43400;45.926;6.724;2022-10-10T15:09:03;24.20;55.10
57564;DHT22;43400;45.926;6.724;2022-10-10T15:11:34;25.10;52.60
57564;DHT22;43400;45.926;6.724;2022-10-10T15:14:06;25.50;51.60
57564;DHT22;43400;45.926;6.724;2022-10-10T15:16:38;25.50;53.10
57564;DHT22;43400;45.926;6.724;2022-10-10T15:19:09;25.80;51.80
57564;DHT22;43400;45.926;6.724;2022-10-10T15:21:41;25.60;51.10
57564;DHT22;43400;45.926;6.724;2022-10-10T15:24:12;25.90;50.60
57564;DHT22;43400;45.926;6.724;2022-10-10T15:26:44;25.50;50.60
57564;DHT22;43400;45.926;6.724;2022-10-10T15:29:15;25.40;52.30
57564;DHT22;43400;45.926;6.724;2022-10-10T15:31:47;25.20;51.90
57564;DHT22;43400;45.926;6.724;2022-10-10T15:34:19;24.60;53.80
57564;DHT22;43400;45.926;6.724;2022-10-10T15:36:51;24.00;54.10
57564;DHT22;43400;45.926;6.724;2022-10-10T15:39:23;23.30;55.40
57564;DHT22;43400;45.926;6.724;2022-10-10T15:41:54;23.00;56.50
57564;DHT22;43400;45.926;6.724;2022-10-10T15:44:26;22.70;58.20
57564;DHT22;43400;45.926;6.724;2022-10-10T15:46:57;22.30;58.30
57564;DHT22;43400;45.926;6.724;2022-10-10T15:49:29;22.00;60.50
57564;DHT22;43400;45.926;6.724;2022-10-10T15:52:01;21.90;62.10
57564;DHT22;43400;45.926;6.724;2022-10-10T15:54:32;21.80;63.40
57564;DHT22;43400;45.926;6.724;2022-10-10T15:57:04;21.50;66.40
57564;DHT22;43400;45.926;6.724;2022-10-10T15:59:35;21.40;66.60
57564;DHT22;43400;45.926;6.724;2022-10-10T16:02:08;21.50;68.00
57564;DHT22;43400;45.926;6.724;2022-10-10T16:04:40;21.40;67.60
57564;DHT22;43400;45.926;6.724;2022-10-10T16:07:12;21.40;65.90
57564;DHT22;43400;45.926;6.724;2022-10-10T16:09:44;21.20;69.40
57564;DHT22;43400;45.926;6.724;2022-10-10T16:12:15;20.90;71.70
57564;DHT22;43400;45.926;6.724;2022-10-10T16:14:47;20.70;72.90
57564;DHT22;43400;45.926;6.724;2022-10-10T16:17:18;20.40;72.30
57564;DHT22;43400;45.926;6.724;2022-10-10T16:19:50;20.20;72.70
57564;DHT22;43400;45.926;6.724;2022-10-10T16:22:21;20.10;73.00
57564;DHT22;43400;45.926;6.724;2022-10-10T16:24:53;20.00;73.90
57564;DHT22;43400;45.926;6.724;2022-10-10T16:27:25;19.80;75.40
57564;DHT22;43400;45.926;6.724;2022-10-10T16:29:56;19.60;76.40
57564;DHT22;43400;45.926;6.724;2022-10-10T16:32:28;19.40;77.50
57564;DHT22;43400;45.926;6.724;2022-10-10T16:35:00;19.20;78.20
57564;DHT22;43400;45.926;6.724;2022-10-10T16:37:31;19.20;78.50
57564;DHT22;43400;45.926;6.724;2022-10-10T16:40:04;19.10;79.00
57564;DHT22;43400;45.926;6.724;2022-10-10T16:42:35;19.00;79.10
57564;DHT22;43400;45.926;6.724;2022-10-10T16:45:08;18.90;79.30
57564;DHT22;43400;45.926;6.724;2022-10-10T16:47:40;18.80;80.70
57564;DHT22;43400;45.926;6.724;2022-10-10T16:50:11;18.70;81.10
57564;DHT22;43400;45.926;6.724;2022-10-10T16:52:43;18.50;81.40
57564;DHT22;43400;45.926;6.724;2022-10-10T16:55:14;18.40;82.10
57564;DHT22;43400;45.926;6.724;2022-10-10T16:57:46;18.30;83.30
57564;DHT22;43400;45.926;6.724;2022-10-10T17:00:17;18.20;82.60
57564;DHT22;43400;45.926;6.724;2022-10-10T17:02:49;18.20;82.50
57564;DHT22;43400;45.926;6.724;2022-10-10T17:05:21;18.20;83.30
57564;DHT22;43400;45.926;6.724;2022-10-10T17:07:52;18.10;83.60
57564;DHT22;43400;45.926;6.724;2022-10-10T17:10:24;18.10;83.40
57564;DHT22;43400;45.926;6.724;2022-10-10T17:12:56;18.00;83.70
57564;DHT22;43400;45.926;6.724;2022-10-10T17:15:27;17.90;83.40
57564;DHT22;43400;45.926;6.724;2022-10-10T17:17:59;17.90;83.50
57564;DHT22;43400;45.926;6.724;2022-10-10T17:20:31;17.80;82.70
57564;DHT22;43400;45.926;6.724;2022-10-10T17:23:02;17.70;84.10
57564;DHT22;43400;45.926;6.724;2022-10-10T17:25:34;17.60;84.80
57564;DHT22;43400;45.926;6.724;2022-10-10T17:28:06;17.50;85.40
57564;DHT22;43400;45.926;6.724;2022-10-10T17:30:45;17.50;84.50
57564;DHT22;43400;45.926;6.724;2022-10-10T17:33:18;17.40;84.60
57564;DHT22;43400;45.926;6.724;2022-10-10T17:35:50;17.40;84.60
57564;DHT22;43400;45.926;6.724;2022-10-10T17:38:21;17.30;84.50
57564;DHT22;43400;45.926;6.724;2022-10-10T17:40:57;17.30;85.30
57564;DHT22;43400;45.926;6.724;2022-10-10T17:43:29;17.20;85.30
57564;DHT22;43400;45.926;6.724;2022-10-10T17:46:03;17.10;85.00
57564;DHT22;43400;45.926;6.724;2022-10-10T17:48:35;17.00;85.50
57564;DHT22;43400;45.926;6.724;2022-10-10T17:51:11;16.90;87.00
57564;DHT22;43400;45.926;6.724;2022-10-10T17:53:43;16.80;87.60
57564;DHT22;43400;45.926;6.724;2022-10-10T17:56:18;16.70;87.80
57564;DHT22;43400;45.926;6.724;2022-10-10T17:58:50;16.70;87.30
57564;DHT22;43400;45.926;6.724;2022-10-10T18:01:22;16.60;87.80
57564;DHT22;43400;45.926;6.724;2022-10-10T18:03:53;16.50;89.30
57564;DHT22;43400;45.926;6.724;2022-10-10T18:06:25;16.50;89.10
57564;DHT22;43400;45.926;6.724;2022-10-10T18:08:56;16.50;89.40
57564;DHT22;43400;45.926;6.724;2022-10-10T18:11:29;16.40;90.00
57564;DHT22;43400;45.926;6.724;2022-10-10T18:14:02;16.40;90.00